01:05 Rennrad Moetz - Zirl - Moetz PLUS
Ort Moetz Datum 20.10.2016 17:03:50
Kategorie Rennrad
Distanz 50,32 Kilometer Steigung 100,0 Meter Gefälle -103,0 Meter
Gesamt Zeit 01:34:42 Aktiv 01:34:36 Pause 00:00:06
Durchs. Tempo 31,9 km/h Tempo max. 40,1 km/h Tempo min. 12,0 km/h
Kalorien 0 Durchs. HF 133 BPM HF max. 153 BPM
Wetter 10 °C Clear Min/Max: 8,3 °C/11,2 °C; Druck: 1014,1 mbar; Rel. Feuchte: 69,1%; Taupunkt: 3,5 °C; Windgeschwindigkeit: 4,8 km/h; Niederschlag: 0,0mm
Ausrüstung Bontrager - RXL Road
Continental - Grand Prix 4000 S II 25-622
Poison - Rennrad
Shimano - HG CN-7901 Dura Ace
Notiz Moetz - Zirl - Moetz PLUS trocken, kalt, in Richtung Zirl eher Gegen-, retour Rückenwind - recht locker ... garmin connect
Splits
Distanz (km) Gesamt Zeit Split Zeit Split Tempo Split Tempo Höhenprofil (m)
1,00 00:02:21 00:02:21 00:02:22 25,4 -9,94
2,00 00:04:23 00:02:01 00:02:02 29,6 0,29
3,00 00:06:17 00:01:53 00:01:54 31,6 -0,59
4,00 00:08:12 00:01:54 00:01:55 31,3 -3,94
5,00 00:10:04 00:01:52 00:01:52 32,0 0,67
6,00 00:11:55 00:01:51 00:01:51 32,4 -0,30
7,00 00:13:49 00:01:53 00:01:54 31,7 -1,04
8,00 00:15:35 00:01:46 00:01:46 33,8 -7,64
9,00 00:17:22 00:01:47 00:01:47 33,5 -2,77
10,00 00:19:19 00:01:56 00:01:56 31,0 1,05
11,00 00:21:29 00:02:10 00:02:10 27,6 0,41
12,00 00:23:32 00:02:02 00:02:03 29,3 -6,63
13,00 00:25:19 00:01:47 00:01:47 33,6 -0,12
14,00 00:27:10 00:01:51 00:01:51 32,3 0,23
15,00 00:29:04 00:01:53 00:01:54 31,7 -5,28
16,00 00:30:54 00:01:49 00:01:50 32,8 3,90
17,00 00:32:44 00:01:50 00:01:51 32,6 -7,96
18,00 00:34:38 00:01:53 00:01:54 31,6 0,00
19,00 00:36:31 00:01:52 00:01:53 31,9 -0,55
20,00 00:38:22 00:01:51 00:01:51 32,4 -0,94
21,00 00:40:16 00:01:53 00:01:54 31,7 -3,42
22,00 00:42:06 00:01:50 00:01:50 32,6 -4,22
23,00 00:44:11 00:02:04 00:02:05 28,9 11,12
24,00 00:46:01 00:01:50 00:01:50 32,7 0,28
25,00 00:47:59 00:01:58 00:01:58 30,5 1,04
26,00 00:49:49 00:01:49 00:01:50 32,9 -6,76
27,00 00:51:28 00:01:39 00:01:39 36,3 -2,86
28,00 00:53:19 00:01:51 00:01:51 32,3 5,06
29,00 00:55:06 00:01:46 00:01:46 33,8 0,58
30,00 00:56:54 00:01:48 00:01:49 33,1 0,41
31,00 00:58:43 00:01:48 00:01:49 33,1 0,24
32,00 01:00:30 00:01:46 00:01:47 33,8 7,67
33,00 01:02:18 00:01:48 00:01:49 33,1 -1,15
34,00 01:04:12 00:01:53 00:01:54 31,7 -0,43
35,00 01:06:00 00:01:47 00:01:48 33,5 3,89
36,00 01:07:56 00:01:56 00:01:57 30,8 -1,34
37,00 01:09:41 00:01:44 00:01:44 34,6 4,18
38,00 01:11:41 00:02:00 00:02:00 29,9 -1,23
39,00 01:13:23 00:01:41 00:01:42 35,3 1,71
40,00 01:15:07 00:01:43 00:01:44 34,6 2,75
41,00 01:16:59 00:01:52 00:01:52 32,0 5,30
42,00 01:19:00 00:02:01 00:02:01 29,7 3,74
43,00 01:20:51 00:01:50 00:01:50 32,6 2,57
44,00 01:22:36 00:01:45 00:01:46 34,1 -2,86
45,00 01:24:24 00:01:47 00:01:48 33,5 2,15
46,00 01:26:16 00:01:52 00:01:52 32,1 3,06
47,00 01:28:07 00:01:50 00:01:51 32,5 0,12
48,00 01:30:02 00:01:55 00:01:55 31,2 0,84
49,00 01:31:50 00:01:47 00:01:47 33,6 2,33
50,00 01:33:45 00:01:55 00:01:56 31,1 6,72
50,34 01:34:36 00:00:50 00:02:27 24,6 -0,08